sensor_id;sensor_type;location;lat;lon;timestamp;P1;durP1;ratioP1;P2;durP2;ratioP2
5345;SDS011;2695;49.444;11.054;2022-11-14T00:00:12;28.23;;;15.80;;
5345;SDS011;2695;49.444;11.054;2022-11-14T00:02:53;26.30;;;17.33;;
5345;SDS011;2695;49.444;11.054;2022-11-14T00:05:26;29.53;;;17.20;;
5345;SDS011;2695;49.444;11.054;2022-11-14T00:07:58;28.70;;;17.77;;
5345;SDS011;2695;49.444;11.054;2022-11-14T00:10:32;31.00;;;17.77;;
5345;SDS011;2695;49.444;11.054;2022-11-14T00:13:00;33.23;;;17.20;;
5345;SDS011;2695;49.444;11.054;2022-11-14T00:15:31;29.90;;;17.10;;
5345;SDS011;2695;49.444;11.054;2022-11-14T00:18:01;35.93;;;17.60;;
5345;SDS011;2695;49.444;11.054;2022-11-14T00:20:32;30.53;;;17.57;;
5345;SDS011;2695;49.444;11.054;2022-11-14T00:23:03;29.37;;;16.73;;
5345;SDS011;2695;49.444;11.054;2022-11-14T00:25:31;30.33;;;17.60;;
5345;SDS011;2695;49.444;11.054;2022-11-14T00:28:02;29.63;;;17.23;;
5345;SDS011;2695;49.444;11.054;2022-11-14T00:30:35;27.40;;;16.70;;
5345;SDS011;2695;49.444;11.054;2022-11-14T00:33:05;28.73;;;16.60;;
5345;SDS011;2695;49.444;11.054;2022-11-14T00:35:33;27.17;;;17.07;;
5345;SDS011;2695;49.444;11.054;2022-11-14T00:38:05;26.70;;;15.73;;
5345;SDS011;2695;49.444;11.054;2022-11-14T00:40:33;27.77;;;15.97;;
5345;SDS011;2695;49.444;11.054;2022-11-14T00:43:06;28.03;;;15.57;;
5345;SDS011;2695;49.444;11.054;2022-11-14T00:45:34;23.67;;;14.63;;
5345;SDS011;2695;49.444;11.054;2022-11-14T00:48:02;24.43;;;15.50;;
5345;SDS011;2695;49.444;11.054;2022-11-14T00:50:33;24.40;;;15.90;;
5345;SDS011;2695;49.444;11.054;2022-11-14T00:53:03;32.37;;;17.17;;
5345;SDS011;2695;49.444;11.054;2022-11-14T00:55:35;26.50;;;15.83;;
5345;SDS011;2695;49.444;11.054;2022-11-14T00:58:05;28.87;;;15.97;;
5345;SDS011;2695;49.444;11.054;2022-11-14T01:00:34;32.57;;;18.13;;
5345;SDS011;2695;49.444;11.054;2022-11-14T01:03:03;33.17;;;17.27;;
5345;SDS011;2695;49.444;11.054;2022-11-14T01:05:31;27.83;;;16.67;;
5345;SDS011;2695;49.444;11.054;2022-11-14T01:07:59;28.83;;;17.17;;
5345;SDS011;2695;49.444;11.054;2022-11-14T01:10:28;26.80;;;16.30;;
5345;SDS011;2695;49.444;11.054;2022-11-14T01:12:56;27.13;;;15.97;;
5345;SDS011;2695;49.444;11.054;2022-11-14T01:15:27;30.63;;;16.67;;
5345;SDS011;2695;49.444;11.054;2022-11-14T01:17:56;25.97;;;16.30;;
5345;SDS011;2695;49.444;11.054;2022-11-14T01:20:24;26.30;;;16.23;;
5345;SDS011;2695;49.444;11.054;2022-11-14T01:22:52;25.10;;;16.00;;
5345;SDS011;2695;49.444;11.054;2022-11-14T01:25:20;31.03;;;18.23;;
5345;SDS011;2695;49.444;11.054;2022-11-14T01:27:50;28.00;;;18.03;;
5345;SDS011;2695;49.444;11.054;2022-11-14T01:30:18;25.70;;;15.10;;
5345;SDS011;2695;49.444;11.054;2022-11-14T01:32:49;29.23;;;15.97;;
5345;SDS011;2695;49.444;11.054;2022-11-14T01:35:18;24.43;;;15.03;;
5345;SDS011;2695;49.444;11.054;2022-11-14T01:37:46;27.27;;;16.83;;
5345;SDS011;2695;49.444;11.054;2022-11-14T01:40:14;27.97;;;15.60;;
5345;SDS011;2695;49.444;11.054;2022-11-14T01:45:52;27.70;;;16.43;;
5345;SDS011;2695;49.444;11.054;2022-11-14T01:48:25;28.33;;;16.70;;
5345;SDS011;2695;49.444;11.054;2022-11-14T01:50:59;28.90;;;15.10;;
5345;SDS011;2695;49.444;11.054;2022-11-14T01:53:29;27.17;;;15.30;;
5345;SDS011;2695;49.444;11.054;2022-11-14T01:55:59;26.93;;;15.77;;
5345;SDS011;2695;49.444;11.054;2022-11-14T01:58:30;26.23;;;16.53;;
5345;SDS011;2695;49.444;11.054;2022-11-14T02:01:03;31.10;;;17.60;;
5345;SDS011;2695;49.444;11.054;2022-11-14T02:03:32;25.73;;;15.93;;
5345;SDS011;2695;49.444;11.054;2022-11-14T02:06:02;27.77;;;17.50;;
5345;SDS011;2695;49.444;11.054;2022-11-14T02:08:32;26.50;;;15.50;;
5345;SDS011;2695;49.444;11.054;2022-11-14T02:11:01;29.30;;;16.07;;
5345;SDS011;2695;49.444;11.054;2022-11-14T02:13:29;30.80;;;17.97;;
5345;SDS011;2695;49.444;11.054;2022-11-14T02:15:57;31.17;;;18.93;;
5345;SDS011;2695;49.444;11.054;2022-11-14T02:18:27;31.83;;;18.03;;
5345;SDS011;2695;49.444;11.054;2022-11-14T02:21:00;29.43;;;16.83;;
5345;SDS011;2695;49.444;11.054;2022-11-14T02:23:29;32.17;;;18.00;;
5345;SDS011;2695;49.444;11.054;2022-11-14T02:25:58;30.50;;;17.80;;
5345;SDS011;2695;49.444;11.054;2022-11-14T02:28:26;34.13;;;21.47;;
5345;SDS011;2695;49.444;11.054;2022-11-14T02:30:55;29.63;;;18.03;;
5345;SDS011;2695;49.444;11.054;2022-11-14T02:33:23;28.73;;;17.40;;
5345;SDS011;2695;49.444;11.054;2022-11-14T02:35:56;28.00;;;17.67;;
5345;SDS011;2695;49.444;11.054;2022-11-14T02:38:36;29.47;;;17.83;;
5345;SDS011;2695;49.444;11.054;2022-11-14T02:41:04;28.20;;;17.70;;
5345;SDS011;2695;49.444;11.054;2022-11-14T02:43:32;26.57;;;16.30;;
5345;SDS011;2695;49.444;11.054;2022-11-14T02:46:03;30.43;;;16.50;;
5345;SDS011;2695;49.444;11.054;2022-11-14T02:48:31;26.00;;;16.17;;
5345;SDS011;2695;49.444;11.054;2022-11-14T02:51:00;29.93;;;17.53;;
5345;SDS011;2695;49.444;11.054;2022-11-14T02:53:28;34.20;;;17.90;;
5345;SDS011;2695;49.444;11.054;2022-11-14T02:55:57;31.23;;;17.87;;
5345;SDS011;2695;49.444;11.054;2022-11-14T02:58:25;27.30;;;16.60;;
5345;SDS011;2695;49.444;11.054;2022-11-14T03:00:54;30.03;;;16.80;;
5345;SDS011;2695;49.444;11.054;2022-11-14T03:03:42;24.87;;;16.40;;
5345;SDS011;2695;49.444;11.054;2022-11-14T03:06:13;34.40;;;18.20;;
5345;SDS011;2695;49.444;11.054;2022-11-14T03:08:46;35.00;;;17.10;;
5345;SDS011;2695;49.444;11.054;2022-11-14T03:11:19;32.23;;;17.00;;
5345;SDS011;2695;49.444;11.054;2022-11-14T03:13:50;26.70;;;16.00;;
5345;SDS011;2695;49.444;11.054;2022-11-14T03:16:18;34.37;;;19.13;;
5345;SDS011;2695;49.444;11.054;2022-11-14T03:18:46;31.23;;;17.67;;
5345;SDS011;2695;49.444;11.054;2022-11-14T03:21:15;26.17;;;16.13;;
5345;SDS011;2695;49.444;11.054;2022-11-14T03:23:47;31.60;;;17.37;;
5345;SDS011;2695;49.444;11.054;2022-11-14T03:26:15;23.53;;;14.10;;
5345;SDS011;2695;49.444;11.054;2022-11-14T03:28:45;25.33;;;15.23;;
5345;SDS011;2695;49.444;11.054;2022-11-14T03:31:13;32.47;;;15.83;;
5345;SDS011;2695;49.444;11.054;2022-11-14T03:33:43;34.20;;;16.50;;
5345;SDS011;2695;49.444;11.054;2022-11-14T03:36:16;28.30;;;16.50;;
5345;SDS011;2695;49.444;11.054;2022-11-14T03:38:44;39.67;;;20.73;;
5345;SDS011;2695;49.444;11.054;2022-11-14T03:41:26;27.37;;;15.93;;
5345;SDS011;2695;49.444;11.054;2022-11-14T03:44:03;23.67;;;14.27;;
5345;SDS011;2695;49.444;11.054;2022-11-14T03:46:34;21.67;;;14.23;;
5345;SDS011;2695;49.444;11.054;2022-11-14T03:49:02;22.60;;;14.50;;
5345;SDS011;2695;49.444;11.054;2022-11-14T03:51:36;21.10;;;13.30;;
5345;SDS011;2695;49.444;11.054;2022-11-14T03:54:04;24.13;;;13.70;;
5345;SDS011;2695;49.444;11.054;2022-11-14T03:56:33;21.57;;;13.93;;
5345;SDS011;2695;49.444;11.054;2022-11-14T03:59:05;18.90;;;12.07;;
5345;SDS011;2695;49.444;11.054;2022-11-14T04:01:33;18.73;;;12.07;;
5345;SDS011;2695;49.444;11.054;2022-11-14T04:04:01;17.20;;;11.13;;
5345;SDS011;2695;49.444;11.054;2022-11-14T04:06:35;18.30;;;11.77;;
5345;SDS011;2695;49.444;11.054;2022-11-14T04:09:03;21.80;;;13.27;;
5345;SDS011;2695;49.444;11.054;2022-11-14T04:14:24;21.87;;;12.33;;
5345;SDS011;2695;49.444;11.054;2022-11-14T04:16:52;24.90;;;14.67;;
5345;SDS011;2695;49.444;11.054;2022-11-14T04:19:21;20.57;;;13.40;;
5345;SDS011;2695;49.444;11.054;2022-11-14T04:21:49;20.87;;;12.60;;
5345;SDS011;2695;49.444;11.054;2022-11-14T04:24:19;22.90;;;12.53;;
5345;SDS011;2695;49.444;11.054;2022-11-14T04:26:47;26.60;;;14.30;;
5345;SDS011;2695;49.444;11.054;2022-11-14T04:29:15;20.53;;;11.50;;
5345;SDS011;2695;49.444;11.054;2022-11-14T04:31:45;15.07;;;11.17;;
5345;SDS011;2695;49.444;11.054;2022-11-14T04:34:13;23.53;;;14.20;;
5345;SDS011;2695;49.444;11.054;2022-11-14T04:36:42;29.23;;;15.97;;
5345;SDS011;2695;49.444;11.054;2022-11-14T04:39:11;29.93;;;15.50;;
5345;SDS011;2695;49.444;11.054;2022-11-14T04:41:41;25.77;;;14.73;;
5345;SDS011;2695;49.444;11.054;2022-11-14T04:44:10;30.47;;;15.33;;
5345;SDS011;2695;49.444;11.054;2022-11-14T04:46:39;29.20;;;13.53;;
5345;SDS011;2695;49.444;11.054;2022-11-14T04:49:11;21.27;;;11.90;;
5345;SDS011;2695;49.444;11.054;2022-11-14T04:51:39;20.73;;;13.00;;
5345;SDS011;2695;49.444;11.054;2022-11-14T04:54:07;19.93;;;11.83;;
5345;SDS011;2695;49.444;11.054;2022-11-14T04:56:36;17.40;;;10.90;;
5345;SDS011;2695;49.444;11.054;2022-11-14T04:59:05;17.23;;;11.27;;
5345;SDS011;2695;49.444;11.054;2022-11-14T05:01:33;21.40;;;12.40;;
5345;SDS011;2695;49.444;11.054;2022-11-14T05:04:01;19.27;;;11.60;;
5345;SDS011;2695;49.444;11.054;2022-11-14T05:06:37;21.80;;;11.10;;
5345;SDS011;2695;49.444;11.054;2022-11-14T05:09:06;16.43;;;10.50;;
5345;SDS011;2695;49.444;11.054;2022-11-14T05:11:37;17.60;;;10.20;;
5345;SDS011;2695;49.444;11.054;2022-11-14T05:14:05;21.83;;;11.23;;
5345;SDS011;2695;49.444;11.054;2022-11-14T05:16:33;18.47;;;10.43;;
5345;SDS011;2695;49.444;11.054;2022-11-14T05:19:03;15.57;;;9.70;;
5345;SDS011;2695;49.444;11.054;2022-11-14T05:21:35;12.77;;;8.70;;
5345;SDS011;2695;49.444;11.054;2022-11-14T05:24:04;16.40;;;9.20;;
5345;SDS011;2695;49.444;11.054;2022-11-14T05:26:32;16.47;;;11.00;;
5345;SDS011;2695;49.444;11.054;2022-11-14T05:29:00;18.37;;;11.10;;
5345;SDS011;2695;49.444;11.054;2022-11-14T05:31:31;19.50;;;12.27;;
5345;SDS011;2695;49.444;11.054;2022-11-14T05:33:59;23.17;;;11.70;;
5345;SDS011;2695;49.444;11.054;2022-11-14T05:36:28;18.20;;;12.40;;
5345;SDS011;2695;49.444;11.054;2022-11-14T05:38:59;22.23;;;12.43;;
5345;SDS011;2695;49.444;11.054;2022-11-14T05:41:27;19.40;;;10.87;;
5345;SDS011;2695;49.444;11.054;2022-11-14T05:43:56;18.27;;;11.80;;
5345;SDS011;2695;49.444;11.054;2022-11-14T05:46:24;21.23;;;12.30;;
5345;SDS011;2695;49.444;11.054;2022-11-14T05:48:52;19.70;;;11.70;;
5345;SDS011;2695;49.444;11.054;2022-11-14T05:51:20;18.43;;;11.50;;
5345;SDS011;2695;49.444;11.054;2022-11-14T05:56:43;11.07;;;7.57;;
5345;SDS011;2695;49.444;11.054;2022-11-14T05:59:11;20.30;;;13.40;;
5345;SDS011;2695;49.444;11.054;2022-11-14T06:01:39;26.73;;;13.33;;
5345;SDS011;2695;49.444;11.054;2022-11-14T06:04:07;28.83;;;12.93;;
5345;SDS011;2695;49.444;11.054;2022-11-14T06:06:35;25.93;;;13.43;;
5345;SDS011;2695;49.444;11.054;2022-11-14T06:09:03;27.70;;;14.20;;
5345;SDS011;2695;49.444;11.054;2022-11-14T06:11:31;27.27;;;13.83;;
5345;SDS011;2695;49.444;11.054;2022-11-14T06:14:00;22.93;;;13.40;;
5345;SDS011;2695;49.444;11.054;2022-11-14T06:16:35;23.10;;;13.00;;
5345;SDS011;2695;49.444;11.054;2022-11-14T06:19:03;22.30;;;13.63;;
5345;SDS011;2695;49.444;11.054;2022-11-14T06:21:32;21.43;;;11.73;;
5345;SDS011;2695;49.444;11.054;2022-11-14T06:24:08;25.60;;;14.50;;
5345;SDS011;2695;49.444;11.054;2022-11-14T06:26:36;15.60;;;9.37;;
5345;SDS011;2695;49.444;11.054;2022-11-14T06:29:06;24.13;;;13.53;;
5345;SDS011;2695;49.444;11.054;2022-11-14T06:31:36;21.13;;;13.20;;
5345;SDS011;2695;49.444;11.054;2022-11-14T06:34:04;31.43;;;16.40;;
5345;SDS011;2695;49.444;11.054;2022-11-14T06:36:33;24.73;;;14.10;;
5345;SDS011;2695;49.444;11.054;2022-11-14T06:39:01;24.43;;;13.90;;
5345;SDS011;2695;49.444;11.054;2022-11-14T06:41:30;22.77;;;13.73;;
5345;SDS011;2695;49.444;11.054;2022-11-14T06:43:58;23.37;;;13.90;;
5345;SDS011;2695;49.444;11.054;2022-11-14T06:46:28;23.80;;;14.40;;
5345;SDS011;2695;49.444;11.054;2022-11-14T06:48:56;26.53;;;14.33;;
5345;SDS011;2695;49.444;11.054;2022-11-14T06:51:24;21.63;;;13.13;;
5345;SDS011;2695;49.444;11.054;2022-11-14T06:53:52;21.33;;;13.20;;
5345;SDS011;2695;49.444;11.054;2022-11-14T06:56:20;15.37;;;11.50;;
5345;SDS011;2695;49.444;11.054;2022-11-14T06:58:48;20.07;;;12.43;;
5345;SDS011;2695;49.444;11.054;2022-11-14T07:01:19;18.97;;;12.43;;
5345;SDS011;2695;49.444;11.054;2022-11-14T07:03:50;18.13;;;10.73;;
5345;SDS011;2695;49.444;11.054;2022-11-14T07:06:28;16.70;;;11.63;;
5345;SDS011;2695;49.444;11.054;2022-11-14T07:08:57;14.93;;;10.77;;
5345;SDS011;2695;49.444;11.054;2022-11-14T07:11:28;15.70;;;9.47;;
5345;SDS011;2695;49.444;11.054;2022-11-14T07:13:57;14.90;;;10.60;;
5345;SDS011;2695;49.444;11.054;2022-11-14T07:16:27;14.43;;;10.17;;
5345;SDS011;2695;49.444;11.054;2022-11-14T07:18:57;12.57;;;9.00;;
5345;SDS011;2695;49.444;11.054;2022-11-14T07:21:27;13.80;;;9.73;;
5345;SDS011;2695;49.444;11.054;2022-11-14T07:23:56;16.87;;;10.53;;
5345;SDS011;2695;49.444;11.054;2022-11-14T07:26:25;15.83;;;10.50;;
5345;SDS011;2695;49.444;11.054;2022-11-14T07:28:53;47.07;;;23.10;;
5345;SDS011;2695;49.444;11.054;2022-11-14T07:31:27;17.57;;;11.33;;
5345;SDS011;2695;49.444;11.054;2022-11-14T07:33:57;14.10;;;10.03;;
5345;SDS011;2695;49.444;11.054;2022-11-14T07:36:25;15.87;;;10.37;;
5345;SDS011;2695;49.444;11.054;2022-11-14T07:38:53;13.83;;;9.80;;
5345;SDS011;2695;49.444;11.054;2022-11-14T07:41:21;16.23;;;10.67;;
5345;SDS011;2695;49.444;11.054;2022-11-14T07:43:49;16.43;;;10.90;;
5345;SDS011;2695;49.444;11.054;2022-11-14T07:46:17;14.90;;;10.10;;
5345;SDS011;2695;49.444;11.054;2022-11-14T07:48:46;18.27;;;10.47;;
5345;SDS011;2695;49.444;11.054;2022-11-14T07:51:16;15.90;;;10.23;;
5345;SDS011;2695;49.444;11.054;2022-11-14T07:53:44;14.80;;;10.23;;
5345;SDS011;2695;49.444;11.054;2022-11-14T07:56:13;13.57;;;10.30;;
5345;SDS011;2695;49.444;11.054;2022-11-14T07:58:42;15.00;;;9.47;;
5345;SDS011;2695;49.444;11.054;2022-11-14T08:01:11;40.43;;;11.13;;
5345;SDS011;2695;49.444;11.054;2022-11-14T08:03:39;14.90;;;9.50;;
5345;SDS011;2695;49.444;11.054;2022-11-14T08:06:12;11.63;;;8.60;;
5345;SDS011;2695;49.444;11.054;2022-11-14T08:08:43;13.57;;;8.80;;
5345;SDS011;2695;49.444;11.054;2022-11-14T08:11:11;8.63;;;6.07;;
5345;SDS011;2695;49.444;11.054;2022-11-14T08:13:58;21.03;;;9.27;;
5345;SDS011;2695;49.444;11.054;2022-11-14T08:16:27;14.27;;;8.23;;
5345;SDS011;2695;49.444;11.054;2022-11-14T08:18:55;14.57;;;8.70;;
5345;SDS011;2695;49.444;11.054;2022-11-14T08:21:23;13.70;;;8.93;;
5345;SDS011;2695;49.444;11.054;2022-11-14T08:23:52;21.37;;;8.50;;
5345;SDS011;2695;49.444;11.054;2022-11-14T08:26:20;13.13;;;8.77;;
5345;SDS011;2695;49.444;11.054;2022-11-14T08:28:51;13.80;;;8.70;;
5345;SDS011;2695;49.444;11.054;2022-11-14T08:31:20;13.90;;;9.20;;
5345;SDS011;2695;49.444;11.054;2022-11-14T08:33:50;20.07;;;9.20;;
5345;SDS011;2695;49.444;11.054;2022-11-14T08:36:18;14.13;;;8.63;;
5345;SDS011;2695;49.444;11.054;2022-11-14T08:38:46;11.80;;;8.17;;
5345;SDS011;2695;49.444;11.054;2022-11-14T08:41:18;11.40;;;8.27;;
5345;SDS011;2695;49.444;11.054;2022-11-14T08:43:46;12.60;;;8.43;;
5345;SDS011;2695;49.444;11.054;2022-11-14T08:46:14;11.77;;;7.93;;
5345;SDS011;2695;49.444;11.054;2022-11-14T08:48:42;10.60;;;6.30;;
5345;SDS011;2695;49.444;11.054;2022-11-14T08:51:10;9.00;;;7.60;;
5345;SDS011;2695;49.444;11.054;2022-11-14T08:53:38;10.13;;;7.23;;
5345;SDS011;2695;49.444;11.054;2022-11-14T08:56:07;9.17;;;7.40;;
5345;SDS011;2695;49.444;11.054;2022-11-14T08:58:37;8.93;;;6.90;;
5345;SDS011;2695;49.444;11.054;2022-11-14T09:01:05;9.30;;;7.33;;
5345;SDS011;2695;49.444;11.054;2022-11-14T09:03:34;12.20;;;8.77;;
5345;SDS011;2695;49.444;11.054;2022-11-14T09:06:02;14.17;;;8.70;;
5345;SDS011;2695;49.444;11.054;2022-11-14T09:08:30;13.00;;;7.90;;
5345;SDS011;2695;49.444;11.054;2022-11-14T09:10:59;10.47;;;7.63;;
5345;SDS011;2695;49.444;11.054;2022-11-14T09:13:31;10.07;;;8.20;;
5345;SDS011;2695;49.444;11.054;2022-11-14T09:16:01;12.87;;;7.47;;
5345;SDS011;2695;49.444;11.054;2022-11-14T09:18:29;10.47;;;7.63;;
5345;SDS011;2695;49.444;11.054;2022-11-14T09:20:58;11.80;;;8.00;;
5345;SDS011;2695;49.444;11.054;2022-11-14T09:23:27;11.20;;;7.13;;
5345;SDS011;2695;49.444;11.054;2022-11-14T09:25:56;11.60;;;7.20;;
5345;SDS011;2695;49.444;11.054;2022-11-14T09:28:24;9.40;;;7.57;;
5345;SDS011;2695;49.444;11.054;2022-11-14T09:30:52;17.87;;;8.10;;
5345;SDS011;2695;49.444;11.054;2022-11-14T09:33:21;10.53;;;7.20;;
5345;SDS011;2695;49.444;11.054;2022-11-14T09:35:54;13.40;;;8.10;;
5345;SDS011;2695;49.444;11.054;2022-11-14T09:38:23;12.40;;;7.30;;
5345;SDS011;2695;49.444;11.054;2022-11-14T09:40:54;11.87;;;7.10;;
5345;SDS011;2695;49.444;11.054;2022-11-14T09:43:37;11.23;;;7.70;;
5345;SDS011;2695;49.444;11.054;2022-11-14T09:46:16;7.60;;;6.17;;
5345;SDS011;2695;49.444;11.054;2022-11-14T09:48:49;10.50;;;7.20;;
5345;SDS011;2695;49.444;11.054;2022-11-14T09:51:19;12.67;;;8.40;;
5345;SDS011;2695;49.444;11.054;2022-11-14T09:53:50;12.53;;;7.77;;
5345;SDS011;2695;49.444;11.054;2022-11-14T09:56:22;12.80;;;8.27;;
5345;SDS011;2695;49.444;11.054;2022-11-14T09:58:51;9.10;;;7.07;;
5345;SDS011;2695;49.444;11.054;2022-11-14T10:01:24;9.90;;;6.93;;
5345;SDS011;2695;49.444;11.054;2022-11-14T10:04:02;11.57;;;6.87;;
5345;SDS011;2695;49.444;11.054;2022-11-14T10:06:45;9.30;;;7.30;;
5345;SDS011;2695;49.444;11.054;2022-11-14T10:12:11;11.00;;;7.50;;
5345;SDS011;2695;49.444;11.054;2022-11-14T10:14:56;11.63;;;7.60;;
5345;SDS011;2695;49.444;11.054;2022-11-14T10:17:38;8.10;;;5.97;;
5345;SDS011;2695;49.444;11.054;2022-11-14T10:20:31;7.60;;;5.90;;
5345;SDS011;2695;49.444;11.054;2022-11-14T10:23:17;12.33;;;6.67;;
5345;SDS011;2695;49.444;11.054;2022-11-14T10:25:55;11.97;;;7.07;;
5345;SDS011;2695;49.444;11.054;2022-11-14T10:31:28;9.20;;;6.20;;
5345;SDS011;2695;49.444;11.054;2022-11-14T10:34:07;10.80;;;6.27;;
5345;SDS011;2695;49.444;11.054;2022-11-14T10:36:44;10.80;;;7.03;;
5345;SDS011;2695;49.444;11.054;2022-11-14T10:39:20;7.90;;;5.27;;
5345;SDS011;2695;49.444;11.054;2022-11-14T10:41:51;12.00;;;6.73;;
5345;SDS011;2695;49.444;11.054;2022-11-14T10:44:30;8.23;;;6.10;;
5345;SDS011;2695;49.444;11.054;2022-11-14T10:47:03;8.53;;;5.43;;
5345;SDS011;2695;49.444;11.054;2022-11-14T10:49:36;8.40;;;5.17;;
5345;SDS011;2695;49.444;11.054;2022-11-14T10:52:08;6.97;;;5.30;;
5345;SDS011;2695;49.444;11.054;2022-11-14T10:54:42;5.60;;;4.83;;
5345;SDS011;2695;49.444;11.054;2022-11-14T10:57:15;5.60;;;4.57;;
5345;SDS011;2695;49.444;11.054;2022-11-14T10:59:45;7.77;;;5.00;;
5345;SDS011;2695;49.444;11.054;2022-11-14T11:02:13;4.40;;;3.40;;
5345;SDS011;2695;49.444;11.054;2022-11-14T11:04:42;7.00;;;5.20;;
5345;SDS011;2695;49.444;11.054;2022-11-14T11:07:20;6.97;;;5.03;;
5345;SDS011;2695;49.444;11.054;2022-11-14T11:10:18;8.00;;;4.93;;
5345;SDS011;2695;49.444;11.054;2022-11-14T11:13:05;9.50;;;4.10;;
5345;SDS011;2695;49.444;11.054;2022-11-14T11:15:38;7.30;;;4.27;;
5345;SDS011;2695;49.444;11.054;2022-11-14T11:18:21;7.43;;;4.90;;
5345;SDS011;2695;49.444;11.054;2022-11-14T11:21:02;7.13;;;4.67;;
5345;SDS011;2695;49.444;11.054;2022-11-14T11:23:33;9.53;;;5.23;;
5345;SDS011;2695;49.444;11.054;2022-11-14T11:26:03;5.30;;;4.60;;
5345;SDS011;2695;49.444;11.054;2022-11-14T11:28:33;5.10;;;4.23;;
5345;SDS011;2695;49.444;11.054;2022-11-14T11:31:03;7.30;;;4.60;;
5345;SDS011;2695;49.444;11.054;2022-11-14T11:33:32;5.90;;;4.63;;
5345;SDS011;2695;49.444;11.054;2022-11-14T11:36:02;6.00;;;4.17;;
5345;SDS011;2695;49.444;11.054;2022-11-14T11:38:34;8.53;;;4.70;;
5345;SDS011;2695;49.444;11.054;2022-11-14T11:41:04;10.40;;;4.80;;
5345;SDS011;2695;49.444;11.054;2022-11-14T11:43:58;4.50;;;3.70;;
5345;SDS011;2695;49.444;11.054;2022-11-14T11:46:31;6.73;;;4.43;;
5345;SDS011;2695;49.444;11.054;2022-11-14T11:49:06;9.00;;;5.07;;
5345;SDS011;2695;49.444;11.054;2022-11-14T11:51:41;7.40;;;5.53;;
5345;SDS011;2695;49.444;11.054;2022-11-14T11:54:14;8.50;;;5.43;;
5345;SDS011;2695;49.444;11.054;2022-11-14T11:56:46;7.30;;;4.70;;
5345;SDS011;2695;49.444;11.054;2022-11-14T11:59:19;5.20;;;3.87;;
5345;SDS011;2695;49.444;11.054;2022-11-14T12:01:53;5.70;;;4.87;;
5345;SDS011;2695;49.444;11.054;2022-11-14T12:04:22;7.93;;;4.90;;
5345;SDS011;2695;49.444;11.054;2022-11-14T12:06:53;7.03;;;5.70;;
5345;SDS011;2695;49.444;11.054;2022-11-14T12:09:31;7.17;;;4.33;;
5345;SDS011;2695;49.444;11.054;2022-11-14T12:12:27;7.03;;;3.90;;
5345;SDS011;2695;49.444;11.054;2022-11-14T12:15:10;6.00;;;3.93;;
5345;SDS011;2695;49.444;11.054;2022-11-14T12:20:53;12.30;;;5.13;;
5345;SDS011;2695;49.444;11.054;2022-11-14T12:23:45;9.20;;;5.17;;
5345;SDS011;2695;49.444;11.054;2022-11-14T12:26:34;7.27;;;5.00;;
5345;SDS011;2695;49.444;11.054;2022-11-14T12:29:19;9.20;;;5.30;;
5345;SDS011;2695;49.444;11.054;2022-11-14T12:32:10;8.87;;;4.97;;
5345;SDS011;2695;49.444;11.054;2022-11-14T12:37:08;7.13;;;5.13;;
5345;SDS011;2695;49.444;11.054;2022-11-14T12:39:42;10.17;;;5.90;;
5345;SDS011;2695;49.444;11.054;2022-11-14T12:48:28;3.67;;;3.10;;
5345;SDS011;2695;49.444;11.054;2022-11-14T12:50:59;4.97;;;3.40;;
5345;SDS011;2695;49.444;11.054;2022-11-14T12:53:36;7.80;;;4.20;;
5345;SDS011;2695;49.444;11.054;2022-11-14T12:59:23;7.30;;;4.87;;
5345;SDS011;2695;49.444;11.054;2022-11-14T13:08:26;5.03;;;3.50;;
5345;SDS011;2695;49.444;11.054;2022-11-14T13:14:16;4.40;;;3.40;;
5345;SDS011;2695;49.444;11.054;2022-11-14T13:17:15;4.43;;;3.20;;
5345;SDS011;2695;49.444;11.054;2022-11-14T13:20:29;3.17;;;2.50;;
5345;SDS011;2695;49.444;11.054;2022-11-14T13:35:37;3.67;;;2.07;;
5345;SDS011;2695;49.444;11.054;2022-11-14T13:47:55;3.63;;;2.60;;
5345;SDS011;2695;49.444;11.054;2022-11-14T13:50:44;6.30;;;2.23;;
5345;SDS011;2695;49.444;11.054;2022-11-14T13:53:19;4.63;;;2.90;;
5345;SDS011;2695;49.444;11.054;2022-11-14T13:55:55;3.33;;;2.43;;
5345;SDS011;2695;49.444;11.054;2022-11-14T13:58:30;2.30;;;2.10;;
5345;SDS011;2695;49.444;11.054;2022-11-14T14:01:20;3.30;;;1.80;;
5345;SDS011;2695;49.444;11.054;2022-11-14T14:07:06;3.60;;;1.80;;
5345;SDS011;2695;49.444;11.054;2022-11-14T14:09:43;2.00;;;1.83;;
5345;SDS011;2695;49.444;11.054;2022-11-14T14:12:23;1.70;;;1.50;;
5345;SDS011;2695;49.444;11.054;2022-11-14T14:15:06;3.90;;;2.33;;
5345;SDS011;2695;49.444;11.054;2022-11-14T14:18:06;3.77;;;2.70;;
5345;SDS011;2695;49.444;11.054;2022-11-14T14:20:43;2.00;;;1.77;;
5345;SDS011;2695;49.444;11.054;2022-11-14T14:23:19;1.73;;;1.37;;
5345;SDS011;2695;49.444;11.054;2022-11-14T14:25:56;2.70;;;2.07;;
5345;SDS011;2695;49.444;11.054;2022-11-14T14:28:36;2.30;;;1.93;;
5345;SDS011;2695;49.444;11.054;2022-11-14T14:31:13;3.27;;;2.07;;
5345;SDS011;2695;49.444;11.054;2022-11-14T14:33:46;1.93;;;1.63;;
5345;SDS011;2695;49.444;11.054;2022-11-14T14:36:16;2.20;;;1.80;;
5345;SDS011;2695;49.444;11.054;2022-11-14T14:38:50;3.10;;;2.07;;
5345;SDS011;2695;49.444;11.054;2022-11-14T14:41:40;2.80;;;2.40;;
5345;SDS011;2695;49.444;11.054;2022-11-14T14:44:13;3.83;;;2.30;;
5345;SDS011;2695;49.444;11.054;2022-11-14T14:46:52;4.33;;;2.20;;
5345;SDS011;2695;49.444;11.054;2022-11-14T14:49:21;6.07;;;2.30;;
5345;SDS011;2695;49.444;11.054;2022-11-14T14:51:57;2.67;;;2.17;;
5345;SDS011;2695;49.444;11.054;2022-11-14T14:54:27;4.40;;;2.50;;
5345;SDS011;2695;49.444;11.054;2022-11-14T14:56:56;2.60;;;1.80;;
5345;SDS011;2695;49.444;11.054;2022-11-14T14:59:31;2.97;;;2.67;;
5345;SDS011;2695;49.444;11.054;2022-11-14T15:02:11;3.30;;;2.30;;
5345;SDS011;2695;49.444;11.054;2022-11-14T15:04:46;3.60;;;2.00;;
5345;SDS011;2695;49.444;11.054;2022-11-14T15:07:31;3.70;;;2.07;;
5345;SDS011;2695;49.444;11.054;2022-11-14T15:10:02;1.70;;;1.57;;
5345;SDS011;2695;49.444;11.054;2022-11-14T15:12:33;3.53;;;2.30;;
5345;SDS011;2695;49.444;11.054;2022-11-14T15:15:02;2.10;;;1.80;;
5345;SDS011;2695;49.444;11.054;2022-11-14T15:17:30;1.70;;;1.60;;
5345;SDS011;2695;49.444;11.054;2022-11-14T15:20:01;2.90;;;1.63;;
5345;SDS011;2695;49.444;11.054;2022-11-14T15:22:38;4.83;;;1.80;;
5345;SDS011;2695;49.444;11.054;2022-11-14T15:25:18;5.70;;;1.77;;
5345;SDS011;2695;49.444;11.054;2022-11-14T15:27:47;3.30;;;2.40;;
5345;SDS011;2695;49.444;11.054;2022-11-14T15:30:22;3.10;;;1.97;;
5345;SDS011;2695;49.444;11.054;2022-11-14T15:32:51;2.97;;;2.10;;
5345;SDS011;2695;49.444;11.054;2022-11-14T15:35:25;1.80;;;1.70;;
5345;SDS011;2695;49.444;11.054;2022-11-14T15:38:02;3.47;;;1.90;;
5345;SDS011;2695;49.444;11.054;2022-11-14T15:41:09;2.00;;;1.80;;
5345;SDS011;2695;49.444;11.054;2022-11-14T15:43:47;5.60;;;2.50;;
5345;SDS011;2695;49.444;11.054;2022-11-14T15:46:26;4.20;;;2.50;;
5345;SDS011;2695;49.444;11.054;2022-11-14T15:50:30;4.43;;;2.80;;
5345;SDS011;2695;49.444;11.054;2022-11-14T16:14:12;4.57;;;2.50;;
5345;SDS011;2695;49.444;11.054;2022-11-14T16:17:07;5.57;;;3.63;;
5345;SDS011;2695;49.444;11.054;2022-11-14T16:20:16;6.10;;;3.33;;
5345;SDS011;2695;49.444;11.054;2022-11-14T16:23:51;4.90;;;3.13;;
5345;SDS011;2695;49.444;11.054;2022-11-14T16:29:42;4.70;;;3.20;;
5345;SDS011;2695;49.444;11.054;2022-11-14T16:33:34;9.30;;;3.47;;
5345;SDS011;2695;49.444;11.054;2022-11-14T16:40:09;9.33;;;3.47;;
5345;SDS011;2695;49.444;11.054;2022-11-14T16:43:15;6.67;;;4.70;;
5345;SDS011;2695;49.444;11.054;2022-11-14T16:45:57;5.37;;;3.20;;
5345;SDS011;2695;49.444;11.054;2022-11-14T16:49:06;6.53;;;4.60;;
5345;SDS011;2695;49.444;11.054;2022-11-14T16:51:52;7.43;;;4.10;;
5345;SDS011;2695;49.444;11.054;2022-11-14T16:54:26;7.30;;;3.70;;